Time;durP1;ratioP1;P1;durP2;ratioP2;P2;SDS_P1;SDS_P2;PMS_P1;PMS_P2;Temp;Humidity;BMP_temperature;BMP_pressure;BME280_temperature;BME280_humidity;BME280_pressure;Samples;Min_cycle;Max_cycle;Signal;HPM_P1;HPM_P2
2021/05/31 00:00:42;;;;;;;23.83;14.43;;;12.00;99.90;;;;;;5062491;28;20045;-81
2021/05/31 00:03:09;;;;;;;22.52;13.52;;;11.90;99.90;;;;;;5041641;28;20053;-81
2021/05/31 00:05:36;;;;;;;23.25;13.52;;;11.90;99.90;;;;;;5047680;28;20088;-81
2021/05/31 00:08:03;;;;;;;22.30;12.82;;;11.80;99.90;;;;;;5048264;28;20105;-81
2021/05/31 00:10:30;;;;;;;28.13;14.27;;;11.80;99.90;;;;;;5043541;28;20061;-82
2021/05/31 00:12:57;;;;;;;24.27;13.60;;;11.70;99.90;;;;;;5049083;28;20105;-82
2021/05/31 00:15:27;;;;;;;24.90;14.05;;;11.70;99.90;;;;;;5050748;28;20131;-81
2021/05/31 00:17:54;;;;;;;28.30;14.85;;;11.70;99.90;;;;;;5051914;28;20049;-82
2021/05/31 00:20:21;;;;;;;30.58;16.05;;;11.60;99.90;;;;;;5050683;28;20077;-81
2021/05/31 00:22:49;;;;;;;26.05;13.98;;;11.60;99.90;;;;;;5045743;28;20053;-81
2021/05/31 00:25:17;;;;;;;24.02;13.35;;;11.60;99.90;;;;;;5044585;28;20099;-82
2021/05/31 00:27:44;;;;;;;26.65;14.40;;;11.50;99.90;;;;;;5051002;28;20049;-81
2021/05/31 00:30:13;;;;;;;29.05;14.27;;;11.50;99.90;;;;;;5055742;28;20051;-81
2021/05/31 00:32:41;;;;;;;25.75;15.10;;;11.50;99.90;;;;;;5081015;28;20045;-82
2021/05/31 00:35:09;;;;;;;27.52;15.30;;;11.50;99.90;;;;;;5047962;28;20184;-81
2021/05/31 00:37:37;;;;;;;24.65;13.85;;;11.40;99.90;;;;;;5052246;28;20080;-81
2021/05/31 00:40:05;;;;;;;22.25;13.25;;;11.30;99.90;;;;;;5052531;28;20148;-81
2021/05/31 00:42:32;;;;;;;23.70;14.05;;;11.30;99.90;;;;;;5060775;28;20128;-81
2021/05/31 00:44:58;;;;;;;20.88;13.60;;;11.30;99.90;;;;;;5047029;28;20056;-81
2021/05/31 00:47:25;;;;;;;27.88;15.77;;;11.30;99.90;;;;;;5045848;28;20109;-82
2021/05/31 00:49:52;;;;;;;29.00;14.80;;;11.20;99.90;;;;;;5046867;28;20049;-82
2021/05/31 00:52:21;;;;;;;26.77;15.27;;;11.20;99.90;;;;;;5048608;28;24492;-82
2021/05/31 00:54:48;;;;;;;23.13;13.80;;;11.10;99.90;;;;;;5081208;28;20044;-82
2021/05/31 00:57:16;;;;;;;26.27;14.02;;;11.10;99.90;;;;;;5047939;28;20112;-81
2021/05/31 00:59:43;;;;;;;30.55;16.50;;;11.10;99.90;;;;;;5053438;28;20068;-81
2021/05/31 01:02:11;;;;;;;27.10;14.18;;;11.00;99.90;;;;;;5058123;28;20098;-81
2021/05/31 01:04:38;;;;;;;38.40;16.23;;;11.00;99.90;;;;;;5046906;28;20075;-81
2021/05/31 01:07:16;;;;;;;26.63;15.18;;;11.00;99.90;;;;;;5049630;28;20104;-81
2021/05/31 01:09:58;;;;;;;25.10;15.70;;;10.90;99.90;;;;;;5051825;28;20031;-81
2021/05/31 01:12:45;;;;;;;27.23;14.75;;;11.00;99.90;;;;;;5047080;28;20051;-81
2021/05/31 01:15:20;;;;;;;27.25;16.05;;;11.00;99.90;;;;;;5064884;28;20052;-81
2021/05/31 01:18:10;;;;;;;26.88;15.68;;;10.90;99.90;;;;;;5046552;28;20057;-81
2021/05/31 01:21:02;;;;;;;31.73;15.38;;;10.90;99.90;;;;;;5045792;28;20105;-81
2021/05/31 01:23:37;;;;;;;25.83;15.73;;;10.90;99.90;;;;;;5060953;28;20045;-81
2021/05/31 01:26:19;;;;;;;33.85;16.50;;;10.90;99.90;;;;;;5047558;28;20049;-81
2021/05/31 01:29:07;;;;;;;29.38;16.67;;;10.90;99.90;;;;;;5047841;28;20501;-81
2021/05/31 01:31:51;;;;;;;31.70;15.60;;;10.80;99.90;;;;;;5078325;28;20033;-81
2021/05/31 01:34:23;;;;;;;;;;;10.80;99.90;;;;;;5052562;28;20674;-81
2021/05/31 01:36:54;;;;;;;33.90;16.08;;;10.80;99.90;;;;;;5078659;28;19931;-82
2021/05/31 01:39:25;;;;;;;31.13;16.35;;;10.80;99.90;;;;;;5045690;28;20139;-81
2021/05/31 01:41:52;;;;;;;26.85;14.63;;;10.70;99.90;;;;;;5042949;28;20044;-84
2021/05/31 01:44:20;;;;;;;32.28;17.08;;;10.60;99.90;;;;;;5045678;28;20096;-82
2021/05/31 01:46:47;;;;;;;30.42;17.48;;;10.60;99.90;;;;;;5062080;28;20109;-82
2021/05/31 01:49:14;;;;;;;37.83;17.42;;;10.60;99.90;;;;;;5044969;28;20567;-81
2021/05/31 01:51:42;;;;;;;32.55;17.02;;;10.60;99.90;;;;;;5044317;28;20511;-82
2021/05/31 01:54:11;;;;;;;25.95;16.40;;;10.60;99.90;;;;;;5052498;28;20109;-82
2021/05/31 01:56:40;;;;;;;33.10;16.50;;;10.60;99.90;;;;;;5044311;28;20049;-82
2021/05/31 01:59:07;;;;;;;35.22;18.30;;;10.60;99.90;;;;;;5048363;28;20057;-82
2021/05/31 02:01:34;;;;;;;29.98;17.05;;;10.50;99.90;;;;;;5046653;28;20033;-82
2021/05/31 02:04:01;;;;;;;38.30;18.95;;;10.50;99.90;;;;;;5046067;28;20121;-82
2021/05/31 02:06:28;;;;;;;30.42;19.40;;;10.40;99.90;;;;;;5044555;28;20057;-82
2021/05/31 02:08:55;;;;;;;31.08;17.27;;;10.40;99.90;;;;;;5050390;28;20090;-81
2021/05/31 02:11:44;;;;;;;34.05;17.52;;;10.40;99.90;;;;;;5042735;28;20045;-82
2021/05/31 02:14:17;;;;;;;38.60;17.27;;;10.40;99.90;;;;;;5072467;28;20053;-82
2021/05/31 02:16:53;;;;;;;33.75;17.83;;;10.40;99.90;;;;;;5060091;28;20053;-81
2021/05/31 02:19:22;;;;;;;30.83;17.70;;;10.40;99.90;;;;;;5045964;28;20045;-82
2021/05/31 02:21:51;;;;;;;34.88;17.52;;;10.30;99.90;;;;;;5044691;28;20464;-81
2021/05/31 02:24:22;;;;;;;31.50;18.63;;;10.30;99.90;;;;;;5046251;28;20761;-82
2021/05/31 02:26:51;;;;;;;32.53;16.83;;;10.30;99.90;;;;;;5062681;28;20041;-82
2021/05/31 02:29:17;;;;;;;38.40;18.05;;;10.30;99.90;;;;;;5060546;28;20057;-82
2021/05/31 02:31:44;;;;;;;34.97;18.08;;;10.30;99.90;;;;;;5052101;28;20132;-82
2021/05/31 02:34:11;;;;;;;34.40;18.40;;;10.20;99.90;;;;;;5048445;28;20393;-81
2021/05/31 02:36:38;;;;;;;30.60;17.08;;;10.20;99.90;;;;;;5047547;28;20979;-81
2021/05/31 02:39:05;;;;;;;39.97;19.00;;;10.20;99.90;;;;;;5045578;28;20116;-81
2021/05/31 02:41:31;;;;;;;38.22;17.80;;;10.20;99.90;;;;;;5046002;28;20394;-81
2021/05/31 02:43:58;;;;;;;44.83;20.55;;;10.10;99.90;;;;;;5047276;28;20068;-81
2021/05/31 02:46:26;;;;;;;35.47;18.50;;;10.00;99.90;;;;;;5049470;28;20057;-82
2021/05/31 02:48:53;;;;;;;38.10;18.20;;;10.00;99.90;;;;;;5081627;28;20059;-81
2021/05/31 02:51:20;;;;;;;34.58;18.45;;;10.00;99.90;;;;;;5054524;28;20135;-81
2021/05/31 02:53:47;;;;;;;36.53;19.33;;;10.00;99.90;;;;;;5045221;28;20657;-82
2021/05/31 02:56:13;;;;;;;34.58;18.27;;;9.90;99.90;;;;;;5063663;28;20053;-82
2021/05/31 02:58:41;;;;;;;41.60;18.98;;;9.90;99.90;;;;;;5050018;28;20053;-81
2021/05/31 03:01:09;;;;;;;42.90;19.45;;;9.90;99.90;;;;;;5055021;28;20049;-82
2021/05/31 03:03:35;;;;;;;35.75;18.67;;;9.80;99.90;;;;;;5053438;28;20049;-81
2021/05/31 03:06:02;;;;;;;34.88;19.38;;;9.80;99.90;;;;;;5050745;28;20045;-81
2021/05/31 03:08:29;;;;;;;39.25;20.35;;;9.80;99.90;;;;;;5049173;28;20053;-81
2021/05/31 03:10:56;;;;;;;39.13;19.75;;;9.70;99.90;;;;;;5046792;28;25135;-81
2021/05/31 03:13:23;;;;;;;46.40;20.08;;;9.70;99.90;;;;;;5048570;28;20688;-82
2021/05/31 03:15:50;;;;;;;47.88;20.52;;;9.60;99.90;;;;;;5048184;28;20064;-81
2021/05/31 03:18:17;;;;;;;46.20;20.63;;;9.60;99.90;;;;;;5049328;28;20051;-81
2021/05/31 03:20:43;;;;;;;39.05;19.65;;;9.60;99.90;;;;;;5047987;28;20068;-82
2021/05/31 03:23:10;;;;;;;46.17;19.85;;;9.60;99.90;;;;;;5056940;28;20045;-81
2021/05/31 03:25:37;;;;;;;40.53;19.48;;;9.50;99.90;;;;;;5049093;28;20105;-81
2021/05/31 03:28:05;;;;;;;39.80;20.08;;;9.50;99.90;;;;;;5052912;28;20069;-82
2021/05/31 03:30:32;;;;;;;42.10;19.95;;;9.50;99.90;;;;;;5052056;28;20046;-81
2021/05/31 03:32:59;;;;;;;38.88;20.70;;;9.50;99.90;;;;;;5049013;28;20041;-81
2021/05/31 03:35:26;;;;;;;40.70;20.23;;;9.40;99.90;;;;;;5040283;28;20029;-81
2021/05/31 03:37:53;;;;;;;36.25;19.88;;;9.40;99.90;;;;;;5051035;28;20060;-81
2021/05/31 03:40:21;;;;;;;51.55;23.77;;;9.40;99.90;;;;;;5049226;28;20044;-80
2021/05/31 03:42:53;;;;;;;41.72;19.35;;;9.40;99.90;;;;;;5049893;28;20083;-81
2021/05/31 03:45:21;;;;;;;39.67;19.73;;;9.30;99.90;;;;;;5044802;28;20113;-81
2021/05/31 03:47:48;;;;;;;41.20;20.10;;;9.30;99.90;;;;;;5049961;28;20110;-82
2021/05/31 03:50:16;;;;;;;39.63;19.77;;;9.30;99.90;;;;;;5049000;28;20041;-81
2021/05/31 03:52:44;;;;;;;39.47;20.17;;;9.40;99.90;;;;;;5048728;28;21662;-81
2021/05/31 03:55:11;;;;;;;34.00;19.40;;;9.40;99.90;;;;;;5048671;28;20128;-81
2021/05/31 03:57:39;;;;;;;38.90;20.33;;;9.40;99.90;;;;;;5047884;28;20112;-81
2021/05/31 04:00:08;;;;;;;38.47;20.55;;;9.50;99.90;;;;;;5056848;28;20957;-81
2021/05/31 04:02:42;;;;;;;41.60;20.77;;;9.50;99.90;;;;;;5051558;28;20052;-81
2021/05/31 04:05:13;;;;;;;40.72;20.10;;;9.50;99.90;;;;;;5050651;28;20088;-82
2021/05/31 04:13:13;;;;;;;40.40;19.55;;;9.50;99.90;;;;;;5051066;28;20073;-81
2021/05/31 04:15:40;;;;;;;43.05;20.27;;;9.50;99.90;;;;;;5044697;28;20073;-80
2021/05/31 04:18:07;;;;;;;43.58;21.77;;;9.50;99.90;;;;;;5050021;28;20045;-81
2021/05/31 04:20:34;;;;;;;39.90;19.63;;;9.40;99.90;;;;;;5032029;28;20063;-81
2021/05/31 04:23:01;;;;;;;43.97;20.83;;;9.50;99.90;;;;;;5047673;28;20053;-81
2021/05/31 04:25:28;;;;;;;35.60;18.60;;;9.50;99.90;;;;;;5080587;28;20041;-81
2021/05/31 04:27:54;;;;;;;36.38;19.80;;;9.50;99.90;;;;;;5050657;28;20605;-81
2021/05/31 04:30:22;;;;;;;39.97;19.80;;;9.50;99.90;;;;;;5046619;28;20049;-82
2021/05/31 04:32:49;;;;;;;37.53;18.65;;;9.60;99.90;;;;;;5042491;28;20052;-81
2021/05/31 04:35:16;;;;;;;38.30;20.30;;;9.60;99.90;;;;;;5054677;28;20056;-82
2021/05/31 04:37:45;;;;;;;37.05;18.73;;;9.60;99.90;;;;;;5046965;28;20051;-82
2021/05/31 04:40:15;;;;;;;39.10;20.80;;;9.70;99.90;;;;;;5048201;28;20127;-82
2021/05/31 04:42:42;;;;;;;37.28;18.73;;;9.70;99.90;;;;;;5048686;28;20057;-82
2021/05/31 04:45:09;;;;;;;37.03;20.27;;;9.70;99.90;;;;;;5050509;28;20141;-81
2021/05/31 04:47:36;;;;;;;41.28;19.92;;;9.70;99.90;;;;;;5046147;28;20080;-80
2021/05/31 04:50:04;;;;;;;35.75;19.63;;;9.70;99.90;;;;;;5049088;28;20053;-81
2021/05/31 04:52:31;;;;;;;38.47;18.25;;;9.80;99.90;;;;;;5052274;28;20045;-81
2021/05/31 04:54:57;;;;;;;42.90;20.10;;;9.80;99.90;;;;;;5044947;28;20061;-80
2021/05/31 04:57:24;;;;;;;36.97;20.02;;;9.90;99.90;;;;;;5046202;28;20152;-80
2021/05/31 04:59:57;;;;;;;36.50;18.77;;;10.10;99.90;;;;;;5049179;28;20073;-81
2021/05/31 05:02:24;;;;;;;42.55;21.38;;;10.10;99.90;;;;;;5057832;28;20056;-81
2021/05/31 05:04:50;;;;;;;39.58;18.40;;;10.20;99.90;;;;;;5047469;28;20064;-80
2021/05/31 05:07:19;;;;;;;46.97;19.25;;;10.30;99.90;;;;;;5051661;28;20100;-81
2021/05/31 05:09:46;;;;;;;40.22;19.65;;;10.30;99.90;;;;;;5049006;28;20049;-81
2021/05/31 05:12:13;;;;;;;59.30;19.92;;;10.40;99.90;;;;;;5044749;28;20065;-81
2021/05/31 05:14:40;;;;;;;114.05;22.83;;;10.40;99.90;;;;;;5050486;28;20045;-82
2021/05/31 05:17:07;;;;;;;77.97;20.38;;;10.50;99.90;;;;;;5048818;28;20081;-82
2021/05/31 05:19:39;;;;;;;85.32;21.52;;;10.60;99.90;;;;;;5047068;28;20056;-82
2021/05/31 05:22:05;;;;;;;46.25;20.13;;;10.60;99.90;;;;;;5047087;28;20057;-81
2021/05/31 05:24:33;;;;;;;44.92;21.02;;;10.60;99.90;;;;;;5048521;28;20105;-81
2021/05/31 05:27:05;;;;;;;46.63;20.88;;;10.70;99.90;;;;;;5046876;28;20494;-80
2021/05/31 05:29:32;;;;;;;48.03;18.90;;;10.80;99.90;;;;;;5048217;28;20144;-81
2021/05/31 05:32:00;;;;;;;40.30;20.02;;;10.90;99.90;;;;;;5044868;28;20120;-81
2021/05/31 05:34:27;;;;;;;38.60;19.50;;;10.90;99.90;;;;;;5041518;28;20072;-81
2021/05/31 05:37:02;;;;;;;41.20;19.95;;;11.00;99.90;;;;;;5049434;28;20113;-81
2021/05/31 05:47:45;;;;;;;52.75;20.73;;;11.10;99.90;;;;;;5049059;28;20053;-80
2021/05/31 05:50:16;;;;;;;55.13;20.40;;;11.10;99.90;;;;;;5046084;28;20103;-80
2021/05/31 05:52:43;;;;;;;39.67;20.95;;;11.30;99.90;;;;;;5044656;28;20135;-80
2021/05/31 05:55:15;;;;;;;46.65;19.73;;;11.30;99.90;;;;;;5046487;28;20101;-80
2021/05/31 05:57:42;;;;;;;41.00;19.88;;;11.40;99.90;;;;;;5045742;28;20037;-81
2021/05/31 06:00:21;;;;;;;45.83;19.88;;;11.50;99.90;;;;;;5053190;28;20037;-80
2021/05/31 06:02:47;;;;;;;58.20;20.17;;;11.60;99.90;;;;;;5047576;28;20064;-80
2021/05/31 06:05:15;;;;;;;52.67;19.83;;;11.60;99.90;;;;;;5045326;28;20104;-81
2021/05/31 06:07:43;;;;;;;55.92;20.80;;;11.60;99.90;;;;;;5046085;28;20057;-81
2021/05/31 06:10:11;;;;;;;42.13;19.98;;;11.60;99.90;;;;;;5046151;28;20033;-80
2021/05/31 06:12:38;;;;;;;35.17;19.42;;;11.60;99.90;;;;;;5049266;28;20128;-81
2021/05/31 06:15:06;;;;;;;43.85;18.55;;;11.70;99.90;;;;;;5042226;28;20052;-80
2021/05/31 06:17:33;;;;;;;39.92;21.65;;;11.80;99.90;;;;;;5046538;28;20053;-81
2021/05/31 06:20:00;;;;;;;37.90;19.85;;;11.90;99.90;;;;;;5043871;28;20051;-81
2021/05/31 06:22:28;;;;;;;36.63;19.63;;;12.00;99.90;;;;;;5050517;28;20103;-81
2021/05/31 06:24:55;;;;;;;32.85;18.63;;;12.20;99.90;;;;;;5052814;28;20415;-82
2021/05/31 06:27:22;;;;;;;37.47;19.83;;;12.30;99.90;;;;;;5049781;28;20049;-81
2021/05/31 06:29:49;;;;;;;33.33;18.88;;;12.40;99.90;;;;;;5052983;28;20057;-81
2021/05/31 06:32:16;;;;;;;26.40;17.25;;;12.40;99.90;;;;;;5040116;28;20045;-81
2021/05/31 06:34:43;;;;;;;30.60;18.55;;;12.50;99.90;;;;;;5074834;28;20082;-80
2021/05/31 06:37:10;;;;;;;32.72;17.90;;;12.60;99.90;;;;;;5059518;28;20129;-81
2021/05/31 06:39:37;;;;;;;29.50;17.02;;;12.70;99.90;;;;;;5051433;28;20063;-81
2021/05/31 06:42:09;;;;;;;28.27;17.30;;;12.90;99.90;;;;;;5053849;28;20085;-82
2021/05/31 06:44:42;;;;;;;32.38;17.52;;;13.10;99.90;;;;;;5054345;28;20493;-82
2021/05/31 06:47:09;;;;;;;29.25;18.08;;;13.40;99.90;;;;;;5050542;28;20501;-82
2021/05/31 06:49:37;;;;;;;25.63;16.38;;;13.40;99.90;;;;;;5045500;28;20041;-81
2021/05/31 06:52:05;;;;;;;28.58;16.75;;;13.50;99.90;;;;;;5044434;28;20101;-82
2021/05/31 06:54:34;;;;;;;28.50;17.45;;;13.60;99.90;;;;;;5052273;28;20492;-82
2021/05/31 06:57:03;;;;;;;25.80;17.30;;;13.60;99.90;;;;;;5049624;28;20053;-82
2021/05/31 06:59:31;;;;;;;25.63;16.67;;;13.70;99.90;;;;;;5072990;28;20074;-81
2021/05/31 07:01:58;;;;;;;26.10;16.80;;;13.70;99.90;;;;;;5052422;28;20055;-82
2021/05/31 07:04:25;;;;;;;27.35;16.65;;;13.70;99.90;;;;;;5040646;28;20054;-82
2021/05/31 07:06:51;;;;;;;27.75;17.08;;;13.70;99.90;;;;;;5049484;28;20136;-82
2021/05/31 07:09:18;;;;;;;25.85;15.45;;;13.70;99.90;;;;;;5045740;28;20139;-82
2021/05/31 07:11:46;;;;;;;24.90;16.58;;;13.70;99.90;;;;;;5051167;28;20080;-82
2021/05/31 07:14:19;;;;;;;27.98;16.90;;;13.80;99.90;;;;;;5047548;28;20053;-82
2021/05/31 07:16:47;;;;;;;24.58;16.08;;;13.90;99.90;;;;;;5054681;28;20845;-82
2021/05/31 07:19:14;;;;;;;27.00;16.27;;;13.90;99.90;;;;;;5060936;28;20049;-82
2021/05/31 07:21:42;;;;;;;25.27;15.70;;;14.00;99.90;;;;;;5062322;28;20099;-82
2021/05/31 07:24:10;;;;;;;26.00;16.13;;;14.00;99.90;;;;;;5050682;28;20057;-82
2021/05/31 07:26:37;;;;;;;25.67;16.38;;;14.10;99.90;;;;;;5049253;28;20095;-82
2021/05/31 07:29:04;;;;;;;27.42;16.85;;;14.10;99.90;;;;;;5066589;28;21220;-82
2021/05/31 07:31:31;;;;;;;27.63;16.80;;;14.20;99.90;;;;;;5051365;28;20040;-82
2021/05/31 07:33:58;;;;;;;28.55;17.40;;;14.30;99.90;;;;;;5045722;28;20050;-82
2021/05/31 07:36:25;;;;;;;27.75;17.15;;;14.40;99.90;;;;;;5040780;28;20165;-82
2021/05/31 07:38:52;;;;;;;30.38;16.63;;;14.50;99.90;;;;;;5056406;28;20033;-82
2021/05/31 07:41:19;;;;;;;27.05;17.08;;;14.60;99.90;;;;;;5052921;28;20041;-83
2021/05/31 07:43:46;;;;;;;29.10;17.40;;;14.70;99.90;;;;;;5057657;28;20115;-82
2021/05/31 07:46:14;;;;;;;26.73;16.88;;;14.90;99.90;;;;;;5048194;28;20069;-83
2021/05/31 07:48:42;;;;;;;26.60;17.27;;;15.10;99.90;;;;;;5048936;28;20107;-82
2021/05/31 07:51:17;;;;;;;26.67;18.10;;;15.30;99.90;;;;;;5049480;28;20059;-82
2021/05/31 07:53:47;;;;;;;25.20;16.85;;;15.50;99.90;;;;;;5050249;28;20049;-81
2021/05/31 07:56:15;;;;;;;28.55;17.83;;;15.70;99.90;;;;;;5063239;28;21655;-81
2021/05/31 07:58:43;;;;;;;27.58;16.77;;;15.70;99.90;;;;;;5045887;28;20491;-81
2021/05/31 08:01:11;;;;;;;25.42;15.55;;;15.70;99.90;;;;;;5048744;28;20112;-81
2021/05/31 08:03:39;;;;;;;31.35;17.05;;;15.60;99.90;;;;;;5050773;28;20084;-82
2021/05/31 08:06:06;;;;;;;29.95;17.05;;;15.70;99.90;;;;;;5047585;28;20112;-81
2021/05/31 08:08:33;;;;;;;26.20;17.50;;;15.80;99.90;;;;;;5048805;28;20108;-82
2021/05/31 08:11:00;;;;;;;26.90;17.50;;;15.90;99.90;;;;;;5048617;28;20128;-81
2021/05/31 08:13:27;;;;;;;26.13;15.48;;;16.00;99.90;;;;;;5048739;28;20127;-81
2021/05/31 08:15:54;;;;;;;24.42;16.20;;;16.20;99.90;;;;;;5048476;28;20068;-81
2021/05/31 08:18:24;;;;;;;26.85;17.08;;;16.30;99.90;;;;;;5044095;28;20133;-81
2021/05/31 08:20:53;;;;;;;22.83;16.13;;;16.20;99.90;;;;;;5053674;28;20043;-83
2021/05/31 08:23:20;;;;;;;23.30;16.73;;;16.00;99.90;;;;;;5054966;28;20049;-81
2021/05/31 08:25:47;;;;;;;22.55;15.00;;;16.00;99.90;;;;;;5048761;28;20117;-82
2021/05/31 08:28:14;;;;;;;24.73;16.55;;;15.90;99.90;;;;;;5046481;28;20084;-82
2021/05/31 08:30:42;;;;;;;21.70;15.52;;;16.00;99.90;;;;;;5055821;28;20045;-82
2021/05/31 08:33:09;;;;;;;22.60;15.75;;;16.00;99.90;;;;;;5047353;28;20055;-82
2021/05/31 08:35:38;;;;;;;26.52;17.10;;;16.10;99.90;;;;;;5042568;28;20080;-82
2021/05/31 08:38:05;;;;;;;23.65;16.38;;;16.10;99.90;;;;;;5075502;28;20117;-81
2021/05/31 08:40:32;;;;;;;21.85;15.60;;;16.20;99.90;;;;;;5031450;28;20124;-81
2021/05/31 08:42:59;;;;;;;22.40;15.90;;;16.20;99.90;;;;;;5037071;28;20107;-81
2021/05/31 08:45:30;;;;;;;23.50;13.90;;;16.30;99.90;;;;;;5048820;28;20061;-81
2021/05/31 08:47:58;;;;;;;20.02;14.52;;;16.40;99.90;;;;;;5046582;28;20071;-81
2021/05/31 08:50:28;;;;;;;22.65;16.13;;;16.50;99.90;;;;;;5045286;28;20056;-82
2021/05/31 08:52:56;;;;;;;23.63;15.57;;;16.60;99.90;;;;;;5045221;28;20136;-81
2021/05/31 08:55:26;;;;;;;19.27;13.85;;;16.70;99.90;;;;;;5069213;28;20466;-80
2021/05/31 08:57:53;;;;;;;22.75;15.48;;;16.90;99.90;;;;;;5064759;28;20076;-80
2021/05/31 09:00:24;;;;;;;19.27;14.60;;;16.90;99.90;;;;;;5048356;28;20088;-80
2021/05/31 09:02:52;;;;;;;21.63;14.07;;;17.00;99.90;;;;;;5045383;28;21033;-80
2021/05/31 09:05:33;;;;;;;20.40;14.45;;;17.20;99.90;;;;;;5046635;28;20057;-81
2021/05/31 09:08:24;;;;;;;19.98;14.65;;;17.40;99.90;;;;;;5047633;28;20068;-81
2021/05/31 09:10:59;;;;;;;20.40;15.02;;;17.60;99.90;;;;;;5061181;28;20065;-80
2021/05/31 09:13:30;;;;;;;23.25;15.20;;;17.60;99.90;;;;;;5041681;28;20084;-81
2021/05/31 09:16:15;;;;;;;18.40;14.10;;;17.60;99.90;;;;;;5044095;28;20171;-81
2021/05/31 09:18:54;;;;;;;19.17;14.13;;;17.70;99.90;;;;;;5081163;28;20063;-80
2021/05/31 09:21:28;;;;;;;18.75;13.88;;;17.90;99.90;;;;;;5057898;28;20052;-81
2021/05/31 09:24:02;;;;;;;18.05;13.90;;;18.10;99.90;;;;;;5080710;28;20041;-81
2021/05/31 09:26:46;;;;;;;19.15;13.57;;;18.30;99.90;;;;;;5052181;28;20053;-81
2021/05/31 09:29:13;;;;;;;18.15;13.30;;;18.40;99.90;;;;;;5055017;28;20100;-80
2021/05/31 09:31:40;;;;;;;16.27;11.93;;;18.50;99.90;;;;;;5048368;28;20059;-81
2021/05/31 09:34:09;;;;;;;16.48;13.60;;;18.60;99.90;;;;;;5081565;28;20084;-80
2021/05/31 09:36:53;;;;;;;17.15;13.75;;;18.70;99.90;;;;;;5044474;28;20152;-80
2021/05/31 09:39:35;;;;;;;15.88;12.68;;;18.90;99.90;;;;;;5076255;28;20061;-80
2021/05/31 09:42:07;;;;;;;17.65;12.30;;;19.20;99.90;;;;;;5044091;28;20048;-80
2021/05/31 09:44:34;;;;;;;17.27;12.57;;;19.40;99.90;;;;;;5078278;28;20067;-80
2021/05/31 09:47:01;;;;;;;20.70;13.05;;;19.50;99.90;;;;;;5045035;28;20044;-80
2021/05/31 09:49:27;;;;;;;15.68;12.73;;;19.60;99.90;;;;;;5045713;28;20053;-81
2021/05/31 09:52:00;;;;;;;18.55;11.43;;;19.60;99.90;;;;;;5042651;28;20048;-82
2021/05/31 09:54:42;;;;;;;14.52;12.45;;;19.60;99.90;;;;;;5063506;28;20074;-81
2021/05/31 09:57:29;;;;;;;17.45;12.45;;;19.70;99.90;;;;;;5063400;28;20076;-80
2021/05/31 10:00:00;;;;;;;15.38;11.75;;;19.80;99.90;;;;;;5065317;28;20063;-80
2021/05/31 10:10:20;;;;;;;11.38;9.27;;;20.40;99.90;;;;;;5050377;28;20076;-80
2021/05/31 10:12:51;;;;;;;13.18;10.00;;;20.50;99.90;;;;;;5046907;28;20097;-80
2021/05/31 10:15:22;;;;;;;12.60;10.60;;;20.70;99.90;;;;;;5062300;28;20101;-80
2021/05/31 10:17:53;;;;;;;11.77;10.50;;;20.80;99.90;;;;;;5037728;28;20041;-80
2021/05/31 10:20:23;;;;;;;13.00;10.07;;;20.90;99.90;;;;;;5065508;28;20033;-81
2021/05/31 10:22:50;;;;;;;12.88;10.18;;;21.00;99.90;;;;;;5060867;28;20081;-81
2021/05/31 10:25:18;;;;;;;12.93;9.88;;;21.00;99.90;;;;;;5045654;28;20064;-81
2021/05/31 10:27:49;;;;;;;12.15;10.23;;;21.10;99.90;;;;;;5041671;28;20052;-81
2021/05/31 10:30:18;;;;;;;18.27;10.88;;;21.20;99.90;;;;;;5051094;28;20055;-82
2021/05/31 10:32:45;;;;;;;10.13;8.70;;;21.30;99.90;;;;;;5045704;28;20056;-81
2021/05/31 10:35:34;;;;;;;10.50;8.43;;;21.40;99.90;;;;;;5048452;28;20049;-80
2021/05/31 10:38:01;;;;;;;11.50;8.57;;;21.40;98.20;;;;;;5061816;28;20053;-81
2021/05/31 10:40:33;;;;;;;12.63;8.52;;;21.50;99.90;;;;;;5046979;28;20056;-80
2021/05/31 10:43:06;;;;;;;13.70;9.02;;;21.70;99.20;;;;;;5086635;28;20029;-81
2021/05/31 10:45:34;;;;;;;10.15;8.23;;;21.90;99.00;;;;;;5044363;28;20482;-80
2021/05/31 10:48:08;;;;;;;17.45;8.02;;;22.00;99.90;;;;;;5042839;28;20122;-81
2021/05/31 10:50:46;;;;;;;11.15;6.97;;;22.10;97.60;;;;;;5053597;28;20064;-80
2021/05/31 10:53:19;;;;;;;8.93;6.88;;;22.10;95.50;;;;;;5049926;28;21015;-81
2021/05/31 10:56:29;;;;;;;8.70;6.75;;;22.10;94.80;;;;;;5046419;28;20045;-81
2021/05/31 10:58:57;;;;;;;12.18;7.13;;;22.00;94.60;;;;;;5044112;28;20053;-81
2021/05/31 11:01:27;;;;;;;9.32;6.93;;;22.10;95.80;;;;;;5038790;28;20068;-80
2021/05/31 11:04:03;;;;;;;10.60;7.25;;;22.20;95.10;;;;;;5063511;28;20052;-80
2021/05/31 11:06:39;;;;;;;7.88;6.65;;;22.30;93.70;;;;;;5071335;28;20408;-80
2021/05/31 11:09:16;;;;;;;9.98;7.00;;;22.50;93.80;;;;;;5055771;28;20077;-81
2021/05/31 11:11:53;;;;;;;8.50;6.63;;;22.70;92.20;;;;;;5057395;28;20053;-81
2021/05/31 11:14:33;;;;;;;8.20;6.25;;;22.80;93.80;;;;;;5061306;28;20048;-81
2021/05/31 11:17:11;;;;;;;9.55;6.18;;;23.10;91.40;;;;;;5068213;28;20051;-80
2021/05/31 11:19:48;;;;;;;5.63;4.03;;;23.40;90.70;;;;;;5051058;28;20028;-80
2021/05/31 11:22:15;;;;;;;5.95;3.90;;;23.50;85.90;;;;;;5073684;28;20124;-81
2021/05/31 11:24:56;;;;;;;8.98;3.85;;;23.70;80.30;;;;;;5068298;28;20060;-81
2021/05/31 11:27:31;;;;;;;6.13;4.22;;;23.90;79.00;;;;;;5045413;28;20051;-81
2021/05/31 11:30:04;;;;;;;5.22;4.68;;;24.10;77.90;;;;;;5061066;28;20053;-81
2021/05/31 11:32:31;;;;;;;7.05;5.45;;;24.30;79.30;;;;;;5052570;28;20060;-81
2021/05/31 11:35:13;;;;;;;6.65;4.90;;;24.50;78.80;;;;;;5064755;28;20045;-81
2021/05/31 11:37:59;;;;;;;6.95;4.25;;;24.70;76.50;;;;;;5077192;28;20045;-80
2021/05/31 11:40:35;;;;;;;8.50;4.65;;;24.90;73.70;;;;;;5050240;28;20049;-81
2021/05/31 11:43:04;;;;;;;8.32;5.60;;;25.20;70.70;;;;;;5049010;28;20564;-81
2021/05/31 11:45:37;;;;;;;6.32;4.90;;;25.40;73.90;;;;;;5046220;28;20059;-80
2021/05/31 11:48:21;;;;;;;6.63;5.13;;;25.70;73.10;;;;;;5048920;28;20124;-80
2021/05/31 11:50:52;;;;;;;10.90;6.53;;;25.90;73.40;;;;;;5045740;28;20057;-82
2021/05/31 11:53:19;;;;;;;9.65;7.35;;;26.30;73.20;;;;;;5082534;28;21401;-81
2021/05/31 11:55:46;;;;;;;9.90;6.63;;;26.80;75.00;;;;;;5053581;28;20110;-81
2021/05/31 11:58:14;;;;;;;9.35;6.22;;;27.20;73.20;;;;;;5046672;28;20042;-81
2021/05/31 12:00:42;;;;;;;9.20;5.90;;;27.60;72.20;;;;;;5043418;28;20057;-81
2021/05/31 12:03:22;;;;;;;8.18;5.40;;;28.00;66.10;;;;;;5045693;28;20045;-81
2021/05/31 12:05:52;;;;;;;8.00;6.10;;;28.30;64.20;;;;;;5054205;28;20048;-82
2021/05/31 12:08:19;;;;;;;8.07;5.55;;;28.80;68.50;;;;;;5051425;28;20052;-81
2021/05/31 12:10:47;;;;;;;6.28;3.70;;;29.20;64.60;;;;;;5077558;28;20120;-82
2021/05/31 12:13:14;;;;;;;6.50;4.15;;;29.20;59.80;;;;;;5063673;28;20113;-81
2021/05/31 12:15:42;;;;;;;9.18;6.90;;;29.40;58.60;;;;;;5045566;28;20075;-82
2021/05/31 12:18:12;;;;;;;7.97;5.80;;;30.00;60.70;;;;;;5046086;28;20051;-82
2021/05/31 12:20:39;;;;;;;14.32;7.82;;;30.70;59.40;;;;;;5064343;28;20112;-82
2021/05/31 12:23:16;;;;;;;9.38;7.28;;;31.20;57.10;;;;;;5048684;28;20045;-82
2021/05/31 12:25:43;;;;;;;7.38;6.20;;;31.10;58.10;;;;;;5048419;28;20044;-82
2021/05/31 12:28:10;;;;;;;10.43;6.82;;;31.10;55.80;;;;;;5048160;28;20060;-82
2021/05/31 12:30:37;;;;;;;10.25;6.82;;;31.10;56.80;;;;;;5059271;28;20101;-82
2021/05/31 12:33:14;;;;;;;7.80;6.30;;;31.40;56.90;;;;;;5043552;28;20083;-81
2021/05/31 12:35:45;;;;;;;10.70;7.68;;;31.90;57.50;;;;;;5062381;28;20091;-81
2021/05/31 12:38:13;;;;;;;8.50;5.75;;;32.40;54.30;;;;;;5049000;28;20041;-81
2021/05/31 12:40:42;;;;;;;8.40;5.78;;;32.40;54.10;;;;;;5051002;28;20100;-81
2021/05/31 12:43:10;;;;;;;8.80;6.13;;;32.50;53.10;;;;;;5048194;28;20059;-82
2021/05/31 12:45:48;;;;;;;8.73;7.10;;;32.90;51.60;;;;;;5063476;28;20144;-81
2021/05/31 12:48:20;;;;;;;7.57;6.63;;;33.00;51.50;;;;;;5039296;28;20132;-81
2021/05/31 12:50:53;;;;;;;11.23;6.28;;;33.50;52.80;;;;;;5077698;28;20076;-81
2021/05/31 12:53:20;;;;;;;9.70;7.23;;;34.00;50.40;;;;;;5055436;28;20097;-82
2021/05/31 12:55:48;;;;;;;9.25;6.45;;;34.30;47.80;;;;;;5054763;28;20052;-82
2021/05/31 12:58:24;;;;;;;8.95;6.15;;;34.00;49.40;;;;;;5050470;28;20132;-81
2021/05/31 13:00:51;;;;;;;8.75;6.60;;;34.20;48.60;;;;;;5053814;28;20080;-82
2021/05/31 13:03:18;;;;;;;6.57;5.88;;;34.20;46.00;;;;;;5042673;28;20051;-82
2021/05/31 13:05:49;;;;;;;6.28;5.10;;;33.10;47.90;;;;;;5048958;28;20053;-81
2021/05/31 13:08:19;;;;;;;6.78;4.90;;;32.40;48.80;;;;;;5049190;28;20072;-81